Quick Links (Output Below):   Max & Min Temps   /   Climate Reports   /   Zone Forecasts
River Forecasts   /   Forestry Forecasts   /   Aviation Forecasts   /   Radars   /   Features

Terminal Aerodrome Forecast (Little Rock)

Pick a Site:
Arkadelphia | El Dorado | Fayetteville | Fort Smith | Harrison | Highfill | Hot Springs | Jonesboro
Little Rock | Monticello | Mountain Home | Pine Bluff | Texarkana
 Forecast 

KLIT 111727Z 1118/1218 03010KT P6SM SCT250
     FM120000 04005KT P6SM SCT150=


 Latest METARs (Observations) 
How to Decode METARs
21Z KLIT 112053Z 07010KT 10SM SCT250 12/M03 A3018 RMK AO2 SLP222
         T01171033 56004
         
20Z KLIT 111953Z 06010G16KT 10SM FEW250 12/M04 A3018 RMK AO2 SLP223
         T01171039
         
19Z KLIT 111853Z 04010G17KT 10SM FEW250 11/M04 A3018 RMK AO2 SLP222
         T01061039
         
18Z KLIT 111753Z 06009KT 10SM SCT250 08/M05 A3019 RMK AO2 SLP225 FU
         VSB DSNT W-NW T00831050 10083 21006 50010
         
17Z KLIT 111653Z 03012KT 10SM SCT250 06/M06 A3020 RMK AO2 SLP230 FU
         VSB DSNT W-NW T00611056
         
16Z KLIT 111553Z 03008KT 10SM BKN250 04/M06 A3019 RMK AO2 SLP226
         T00391056
         
15Z KLIT 111453Z 02008KT 10SM SCT250 03/M04 A3016 RMK AO2 SLP215
         T00281044 53030
         
14Z KLIT 111353Z 02008KT 10SM FEW120 BKN250 01/M04 A3012 RMK AO2
         SLP204 T00111039
         
13Z KLIT 111253Z 01005KT 10SM SCT150 BKN250 M01/M04 A3009 RMK AO2
         SLP193 T10061039
         
12Z KLIT 111153Z 01004KT 10SM FEW150 00/M04 A3007 RMK AO2 SLP184
         T00001039 10039 20000 53021
         
***** Today's Observations (Above) *****


Back to Main Page
http://www.srh.noaa.gov/lzk/qfcst.php

USA.gov is the U.S. government's official web portal to all federal, state and local government web resources and services.